BKP961 VTSM-WSSS
Flight info
| Callsign | BKP961 |
|---|---|
| Flight time | N/A |
| Altitude | 37000 |
| Route | RUMVA1A RUMVA Y95 IKOGA Y24 PASVA Y514 NUFFA DCT VMR |
| Aircraft | A319/M-SDE3FGHIRWY/LB1 |
Departure
| Time | 2026-04-24 20:22 |
|---|---|
| Airport | Samui International Airport (VTSM) |
Arrival
| Time | N/A |
|---|---|
| Airport | Singapore Changi Airport (WSSS) |
| Time | Latitude | Longitude | Altitude | Speed | Heading |
|---|---|---|---|---|---|
| 2026-04-24 20:14 | 9.55162 | 100.06338 | 55 ft | 0 kts | 85° |
| 2026-04-24 20:15 | 9.55162 | 100.06337 | 55 ft | 2 kts | 85° |
| 2026-04-24 20:15 | 9.55157 | 100.06313 | 51 ft | 4 kts | 56° |
| 2026-04-24 20:15 | 9.55139 | 100.06299 | 47 ft | 4 kts | 2° |
| 2026-04-24 20:16 | 9.55127 | 100.06299 | 51 ft | 1 kts | 354° |
| 2026-04-24 20:18 | 9.55150 | 100.06297 | 48 ft | 6 kts | 354° |
| 2026-04-24 20:19 | 9.55211 | 100.06290 | 53 ft | 11 kts | 354° |
| 2026-04-24 20:19 | 9.55285 | 100.06276 | 53 ft | 9 kts | 324° |
| 2026-04-24 20:19 | 9.55302 | 100.06209 | 53 ft | 10 kts | 298° |
| 2026-04-24 20:19 | 9.55382 | 100.06188 | 53 ft | 14 kts | 354° |
| 2026-04-24 20:20 | 9.55497 | 100.06176 | 53 ft | 19 kts | 354° |
| 2026-04-24 20:20 | 9.55622 | 100.06177 | 53 ft | 18 kts | 17° |
| 2026-04-24 20:20 | 9.55703 | 100.06173 | 51 ft | 7 kts | 307° |
| 2026-04-24 20:20 | 9.55663 | 100.06160 | 51 ft | 10 kts | 167° |
| 2026-04-24 20:21 | 9.55571 | 100.06170 | 53 ft | 24 kts | 174° |
| 2026-04-24 20:21 | 9.55197 | 100.06207 | 53 ft | 83 kts | 174° |
| 2026-04-24 20:21 | 9.54445 | 100.06281 | 55 ft | 136 kts | 174° |
| 2026-04-24 20:21 | 9.53472 | 100.06386 | 542 ft | 137 kts | 172° |
| 2026-04-24 20:22 | 9.52564 | 100.06703 | 1096 ft | 139 kts | 156° |
| 2026-04-24 20:22 | 9.51668 | 100.07091 | 1658 ft | 141 kts | 157° |
| 2026-04-24 20:22 | 9.50704 | 100.07493 | 2005 ft | 159 kts | 156° |
| 2026-04-24 20:22 | 9.49606 | 100.07939 | 2317 ft | 181 kts | 157° |
| 2026-04-24 20:23 | 9.48361 | 100.08441 | 2604 ft | 204 kts | 157° |
| 2026-04-24 20:23 | 9.46989 | 100.08991 | 3080 ft | 217 kts | 156° |
| 2026-04-24 20:23 | 9.45695 | 100.09815 | 3542 ft | 230 kts | 136° |
| 2026-04-24 20:23 | 9.44501 | 100.10992 | 3949 ft | 254 kts | 134° |
| 2026-04-24 20:24 | 9.43646 | 100.11849 | 4335 ft | 266 kts | 133° |
| 2026-04-24 20:24 | 9.41843 | 100.13661 | 5409 ft | 276 kts | 134° |
| 2026-04-24 20:24 | 9.40464 | 100.15043 | 5797 ft | 279 kts | 134° |
| 2026-04-24 20:24 | 9.39088 | 100.16418 | 5920 ft | 278 kts | 134° |
| 2026-04-24 20:25 | 9.37710 | 100.17793 | 5945 ft | 278 kts | 134° |
| 2026-04-24 20:25 | 9.36327 | 100.19171 | 5947 ft | 278 kts | 134° |
| 2026-04-24 20:25 | 9.34948 | 100.20545 | 5942 ft | 278 kts | 134° |
| 2026-04-24 20:25 | 9.33589 | 100.21899 | 5994 ft | 279 kts | 134° |
| 2026-04-24 20:26 | 9.32205 | 100.23280 | 6767 ft | 280 kts | 134° |
| 2026-04-24 20:26 | 9.30811 | 100.24672 | 7605 ft | 282 kts | 134° |
| 2026-04-24 20:26 | 9.29405 | 100.26074 | 8435 ft | 285 kts | 135° |
| 2026-04-24 20:26 | 9.27898 | 100.27395 | 9296 ft | 287 kts | 141° |
| 2026-04-24 20:27 | 9.26312 | 100.28643 | 10089 ft | 291 kts | 141° |
| 2026-04-24 20:27 | 9.24670 | 100.29934 | 10342 ft | 314 kts | 141° |
| 2026-04-24 20:27 | 9.22901 | 100.31327 | 10773 ft | 326 kts | 141° |
| 2026-04-24 20:27 | 9.21096 | 100.32751 | 11398 ft | 331 kts | 141° |
| 2026-04-24 20:28 | 9.19265 | 100.34197 | 12052 ft | 334 kts | 141° |
| 2026-04-24 20:28 | 9.17420 | 100.35654 | 12704 ft | 338 kts | 141° |
| 2026-04-24 20:28 | 9.15560 | 100.37122 | 13345 ft | 341 kts | 141° |
| 2026-04-24 20:28 | 9.13697 | 100.38593 | 13932 ft | 344 kts | 141° |
| 2026-04-24 20:29 | 9.12419 | 100.39603 | 14299 ft | 346 kts | 141° |
| 2026-04-24 20:29 | 9.09885 | 100.41604 | 15028 ft | 350 kts | 141° |
| 2026-04-24 20:29 | 9.07953 | 100.43129 | 15572 ft | 354 kts | 141° |
| 2026-04-24 20:29 | 9.06000 | 100.44669 | 16119 ft | 357 kts | 141° |
| 2026-04-24 20:30 | 9.04021 | 100.46229 | 16665 ft | 360 kts | 141° |
| 2026-04-24 20:30 | 9.02031 | 100.47799 | 17210 ft | 363 kts | 141° |
| 2026-04-24 20:30 | 9.00029 | 100.49379 | 17755 ft | 366 kts | 141° |
| 2026-04-24 20:30 | 8.98037 | 100.50952 | 18264 ft | 370 kts | 141° |
| 2026-04-24 20:31 | 8.95998 | 100.52562 | 18733 ft | 373 kts | 141° |
| 2026-04-24 20:31 | 8.93942 | 100.54185 | 19219 ft | 375 kts | 141° |
| 2026-04-24 20:31 | 8.91870 | 100.55819 | 19697 ft | 378 kts | 141° |
| 2026-04-24 20:31 | 8.89805 | 100.57444 | 20176 ft | 381 kts | 141° |
| 2026-04-24 20:32 | 8.87708 | 100.59092 | 20681 ft | 382 kts | 142° |
| 2026-04-24 20:32 | 8.85591 | 100.60754 | 21160 ft | 385 kts | 142° |
| 2026-04-24 20:32 | 8.83483 | 100.62408 | 21594 ft | 389 kts | 142° |
| 2026-04-24 20:32 | 8.81332 | 100.64094 | 22052 ft | 391 kts | 142° |
| 2026-04-24 20:33 | 8.79166 | 100.65789 | 22520 ft | 394 kts | 142° |
| 2026-04-24 20:33 | 8.76996 | 100.67489 | 22998 ft | 396 kts | 142° |
| 2026-04-24 20:33 | 8.74804 | 100.69204 | 23423 ft | 400 kts | 142° |
| 2026-04-24 20:33 | 8.72601 | 100.70929 | 23825 ft | 402 kts | 142° |
| 2026-04-24 20:34 | 8.70381 | 100.72672 | 24174 ft | 405 kts | 142° |
| 2026-04-24 20:34 | 8.68148 | 100.74427 | 24563 ft | 407 kts | 142° |
| 2026-04-24 20:34 | 8.65903 | 100.76187 | 24874 ft | 411 kts | 143° |
| 2026-04-24 20:34 | 8.63670 | 100.77938 | 25241 ft | 413 kts | 142° |
| 2026-04-24 20:35 | 8.61389 | 100.79724 | 25562 ft | 416 kts | 142° |
| 2026-04-24 20:35 | 8.59090 | 100.81523 | 25872 ft | 420 kts | 142° |
| 2026-04-24 20:35 | 8.56769 | 100.83342 | 26197 ft | 423 kts | 143° |
| 2026-04-24 20:35 | 8.54443 | 100.85166 | 26576 ft | 424 kts | 143° |
| 2026-04-24 20:36 | 8.52101 | 100.87002 | 26912 ft | 427 kts | 142° |
| 2026-04-24 20:36 | 8.49767 | 100.88828 | 27665 ft | 413 kts | 143° |
| 2026-04-24 20:36 | 8.47554 | 100.90558 | 28604 ft | 387 kts | 143° |
| 2026-04-24 20:36 | 8.45517 | 100.92156 | 29225 ft | 365 kts | 143° |
| 2026-04-24 20:37 | 8.43533 | 100.93716 | 29893 ft | 355 kts | 143° |
| 2026-04-24 20:37 | 8.41626 | 100.95216 | 30430 ft | 340 kts | 143° |
| 2026-04-24 20:37 | 8.37873 | 100.98154 | 30515 ft | 343 kts | 143° |
| 2026-04-24 20:38 | 8.34092 | 101.01107 | 30679 ft | 344 kts | 143° |
| 2026-04-24 20:38 | 8.32204 | 101.02583 | 30792 ft | 343 kts | 143° |
| 2026-04-24 20:38 | 8.30321 | 101.04054 | 30907 ft | 342 kts | 143° |
| 2026-04-24 20:39 | 8.28440 | 101.05524 | 31026 ft | 341 kts | 143° |
| 2026-04-24 20:39 | 8.26566 | 101.06987 | 31136 ft | 340 kts | 144° |
| 2026-04-24 20:39 | 8.24687 | 101.08457 | 31254 ft | 339 kts | 144° |
| 2026-04-24 20:39 | 8.22848 | 101.09898 | 31375 ft | 340 kts | 143° |
| 2026-04-24 20:40 | 8.20957 | 101.11382 | 31490 ft | 347 kts | 143° |
| 2026-04-24 20:40 | 8.19016 | 101.12904 | 31619 ft | 355 kts | 143° |
| 2026-04-24 20:40 | 8.17038 | 101.14450 | 31739 ft | 364 kts | 143° |
| 2026-04-24 20:40 | 8.15013 | 101.16030 | 31863 ft | 372 kts | 143° |
| 2026-04-24 20:41 | 8.12942 | 101.17648 | 31986 ft | 381 kts | 143° |
| 2026-04-24 20:41 | 8.11540 | 101.18743 | 32067 ft | 386 kts | 143° |
| 2026-04-24 20:41 | 8.08665 | 101.20987 | 32232 ft | 398 kts | 143° |
| 2026-04-24 20:41 | 8.07198 | 101.22134 | 32314 ft | 403 kts | 143° |
| 2026-04-24 20:42 | 8.04957 | 101.23888 | 32438 ft | 411 kts | 143° |
| 2026-04-24 20:42 | 8.02674 | 101.25670 | 32561 ft | 419 kts | 143° |
| 2026-04-24 20:42 | 8.00342 | 101.27489 | 32694 ft | 426 kts | 143° |
| 2026-04-24 20:42 | 7.97982 | 101.29335 | 32814 ft | 433 kts | 143° |
| 2026-04-24 20:43 | 7.95578 | 101.31215 | 32940 ft | 440 kts | 143° |
| 2026-04-24 20:43 | 7.93142 | 101.33121 | 33065 ft | 447 kts | 143° |
| 2026-04-24 20:43 | 7.90662 | 101.35059 | 33189 ft | 453 kts | 143° |
| 2026-04-24 20:43 | 7.88145 | 101.37024 | 33346 ft | 458 kts | 143° |
| 2026-04-24 20:44 | 7.85618 | 101.38993 | 33650 ft | 460 kts | 143° |
| 2026-04-24 20:44 | 7.83116 | 101.40944 | 33954 ft | 460 kts | 143° |
| 2026-04-24 20:44 | 7.80579 | 101.42925 | 34293 ft | 460 kts | 143° |
| 2026-04-24 20:44 | 7.78043 | 101.44906 | 34652 ft | 458 kts | 143° |
| 2026-04-24 20:45 | 7.75517 | 101.46877 | 34980 ft | 458 kts | 143° |
| 2026-04-24 20:45 | 7.73000 | 101.48838 | 35324 ft | 456 kts | 143° |
| 2026-04-24 20:45 | 7.70494 | 101.50787 | 35697 ft | 455 kts | 143° |
| 2026-04-24 20:45 | 7.68018 | 101.52707 | 36059 ft | 453 kts | 144° |
| 2026-04-24 20:46 | 7.65363 | 101.54392 | 36402 ft | 450 kts | 154° |
| 2026-04-24 20:46 | 7.62501 | 101.55634 | 36725 ft | 448 kts | 161° |
| 2026-04-24 20:46 | 7.59585 | 101.56737 | 36833 ft | 446 kts | 160° |
| 2026-04-24 20:46 | 7.56678 | 101.57839 | 36852 ft | 445 kts | 160° |
| 2026-04-24 20:47 | 7.50873 | 101.60050 | 36851 ft | 445 kts | 160° |
| 2026-04-24 20:47 | 7.45105 | 101.62246 | 36855 ft | 444 kts | 160° |
| 2026-04-24 20:48 | 7.39325 | 101.64442 | 36851 ft | 442 kts | 161° |
| 2026-04-24 20:48 | 7.33617 | 101.66610 | 36852 ft | 441 kts | 160° |
| 2026-04-24 20:49 | 7.27869 | 101.68795 | 36846 ft | 441 kts | 160° |
| 2026-04-24 20:49 | 7.22131 | 101.70982 | 36843 ft | 441 kts | 160° |
| 2026-04-24 20:50 | 7.16380 | 101.73178 | 36841 ft | 441 kts | 160° |
| 2026-04-24 20:50 | 7.10666 | 101.75355 | 36841 ft | 441 kts | 160° |
| 2026-04-24 20:51 | 7.04916 | 101.77541 | 36844 ft | 441 kts | 160° |
| 2026-04-24 20:51 | 6.99177 | 101.79723 | 36847 ft | 440 kts | 160° |
| 2026-04-24 20:52 | 6.93446 | 101.81901 | 36847 ft | 440 kts | 160° |
| 2026-04-24 20:52 | 6.87745 | 101.84062 | 36846 ft | 440 kts | 160° |
| 2026-04-24 20:53 | 6.82014 | 101.86231 | 36847 ft | 439 kts | 160° |
| 2026-04-24 20:53 | 6.76292 | 101.88400 | 36846 ft | 439 kts | 160° |
| 2026-04-24 20:54 | 6.70561 | 101.90573 | 36845 ft | 439 kts | 160° |
| 2026-04-24 20:54 | 6.64845 | 101.92743 | 36844 ft | 439 kts | 160° |
| 2026-04-24 20:55 | 6.59125 | 101.94913 | 36845 ft | 439 kts | 160° |
| 2026-04-24 20:55 | 6.53415 | 101.97078 | 36844 ft | 438 kts | 160° |
| 2026-04-24 20:56 | 6.47717 | 101.99236 | 36843 ft | 438 kts | 160° |
| 2026-04-24 20:56 | 6.42008 | 102.01406 | 36843 ft | 438 kts | 160° |
| 2026-04-24 20:57 | 6.36323 | 102.03559 | 36845 ft | 438 kts | 160° |
| 2026-04-24 20:57 | 6.30602 | 102.05721 | 36843 ft | 438 kts | 160° |
| 2026-04-24 20:58 | 6.24885 | 102.07879 | 36844 ft | 438 kts | 161° |
| 2026-04-24 20:58 | 6.19128 | 102.09838 | 36845 ft | 438 kts | 163° |
| 2026-04-24 20:59 | 6.13313 | 102.11679 | 36846 ft | 438 kts | 163° |
| 2026-04-24 20:59 | 6.07498 | 102.13549 | 36851 ft | 438 kts | 163° |
| 2026-04-24 21:00 | 6.01725 | 102.15447 | 36849 ft | 438 kts | 163° |
| 2026-04-24 21:00 | 5.95929 | 102.17358 | 36850 ft | 438 kts | 163° |
| 2026-04-24 21:01 | 5.90122 | 102.19268 | 36863 ft | 438 kts | 162° |
| 2026-04-24 21:01 | 5.84353 | 102.21164 | 36862 ft | 437 kts | 162° |
| 2026-04-24 21:02 | 5.78562 | 102.23072 | 36867 ft | 437 kts | 162° |
| 2026-04-24 21:02 | 5.72813 | 102.24999 | 36864 ft | 437 kts | 161° |
| 2026-04-24 21:03 | 5.67141 | 102.27218 | 36863 ft | 437 kts | 158° |
| 2026-04-24 21:03 | 5.61521 | 102.29571 | 36865 ft | 437 kts | 158° |
| 2026-04-24 21:04 | 5.55888 | 102.31880 | 36869 ft | 437 kts | 159° |
| 2026-04-24 21:04 | 5.50224 | 102.34134 | 36876 ft | 437 kts | 159° |
| 2026-04-24 21:05 | 5.44564 | 102.36373 | 36876 ft | 436 kts | 159° |
| 2026-04-24 21:05 | 5.38948 | 102.38610 | 36875 ft | 436 kts | 159° |
| 2026-04-24 21:06 | 5.33305 | 102.40861 | 36880 ft | 436 kts | 159° |
| 2026-04-24 21:06 | 5.27682 | 102.43106 | 36875 ft | 436 kts | 159° |
| 2026-04-24 21:07 | 5.22038 | 102.45366 | 36873 ft | 436 kts | 159° |
| 2026-04-24 21:07 | 5.16396 | 102.47615 | 36878 ft | 436 kts | 159° |
| 2026-04-24 21:08 | 5.10762 | 102.49865 | 36883 ft | 436 kts | 159° |
| 2026-04-24 21:08 | 5.05128 | 102.52118 | 36884 ft | 435 kts | 159° |
| 2026-04-24 21:09 | 4.99501 | 102.54367 | 36880 ft | 435 kts | 159° |
| 2026-04-24 21:09 | 4.93905 | 102.56608 | 36880 ft | 435 kts | 159° |
| 2026-04-24 21:10 | 4.88235 | 102.58855 | 36886 ft | 435 kts | 159° |
| 2026-04-24 21:10 | 4.82639 | 102.61071 | 36884 ft | 435 kts | 159° |
| 2026-04-24 21:11 | 4.77011 | 102.63317 | 36886 ft | 435 kts | 159° |
| 2026-04-24 21:11 | 4.71373 | 102.65573 | 36892 ft | 435 kts | 159° |
| 2026-04-24 21:12 | 4.66690 | 102.67441 | 36889 ft | 435 kts | 159° |
| 2026-04-24 21:12 | 4.60136 | 102.70064 | 36889 ft | 435 kts | 159° |
| 2026-04-24 21:13 | 4.54520 | 102.72302 | 36889 ft | 435 kts | 159° |
| 2026-04-24 21:13 | 4.48884 | 102.74543 | 36889 ft | 435 kts | 159° |
| 2026-04-24 21:14 | 4.43251 | 102.76775 | 36881 ft | 435 kts | 159° |
| 2026-04-24 21:14 | 4.37658 | 102.78996 | 36884 ft | 435 kts | 158° |
| 2026-04-24 21:15 | 4.32015 | 102.81247 | 36884 ft | 435 kts | 158° |
| 2026-04-24 21:15 | 4.26380 | 102.83492 | 36879 ft | 435 kts | 158° |
| 2026-04-24 21:16 | 4.20764 | 102.85739 | 36879 ft | 435 kts | 158° |
| 2026-04-24 21:16 | 4.15164 | 102.87967 | 36874 ft | 435 kts | 158° |
| 2026-04-24 21:17 | 4.09534 | 102.90201 | 36873 ft | 435 kts | 158° |
| 2026-04-24 21:17 | 4.04852 | 102.92063 | 36874 ft | 435 kts | 158° |
| 2026-04-24 21:18 | 3.98275 | 102.94690 | 36866 ft | 435 kts | 158° |
| 2026-04-24 21:18 | 3.92669 | 102.96925 | 36867 ft | 435 kts | 158° |
| 2026-04-24 21:19 | 3.87037 | 102.99161 | 36868 ft | 435 kts | 159° |
| 2026-04-24 21:19 | 3.81431 | 103.01389 | 36867 ft | 435 kts | 158° |
| 2026-04-24 21:20 | 3.72973 | 103.04750 | 36870 ft | 435 kts | 158° |
| 2026-04-24 21:21 | 3.67350 | 103.06981 | 36870 ft | 435 kts | 158° |
| 2026-04-24 21:21 | 3.61761 | 103.09201 | 36871 ft | 434 kts | 158° |
| 2026-04-24 21:22 | 3.56144 | 103.11439 | 36866 ft | 434 kts | 158° |
| 2026-04-24 21:22 | 3.50523 | 103.13676 | 36864 ft | 434 kts | 158° |
| 2026-04-24 21:23 | 3.44898 | 103.15908 | 36858 ft | 434 kts | 158° |
| 2026-04-24 21:23 | 3.40211 | 103.17765 | 36861 ft | 435 kts | 158° |
| 2026-04-24 21:24 | 3.33661 | 103.20361 | 36861 ft | 435 kts | 158° |
| 2026-04-24 21:24 | 3.29180 | 103.22643 | 36860 ft | 434 kts | 144° |
| 2026-04-24 21:25 | 3.24783 | 103.26763 | 36862 ft | 434 kts | 133° |
| 2026-04-24 21:25 | 3.20639 | 103.31162 | 36861 ft | 434 kts | 134° |
| 2026-04-24 21:26 | 3.16487 | 103.35560 | 36859 ft | 434 kts | 134° |
| 2026-04-24 21:26 | 3.12360 | 103.39931 | 36860 ft | 434 kts | 134° |
| 2026-04-24 21:27 | 3.08197 | 103.44345 | 36862 ft | 434 kts | 133° |
| 2026-04-24 21:27 | 3.04038 | 103.48753 | 36863 ft | 434 kts | 134° |
| 2026-04-24 21:28 | 2.99909 | 103.53120 | 36862 ft | 435 kts | 133° |
| 2026-04-24 21:28 | 2.95749 | 103.57521 | 36865 ft | 434 kts | 133° |
| 2026-04-24 21:29 | 2.91596 | 103.61915 | 36867 ft | 434 kts | 135° |
| 2026-04-24 21:29 | 2.86698 | 103.65427 | 36864 ft | 434 kts | 154° |
| 2026-04-24 21:30 | 2.81218 | 103.67894 | 36869 ft | 434 kts | 155° |
| 2026-04-24 21:30 | 2.75701 | 103.70392 | 36710 ft | 435 kts | 155° |
| 2026-04-24 21:30 | 2.72948 | 103.71647 | 36465 ft | 435 kts | 155° |
| 2026-04-24 21:31 | 2.70194 | 103.72905 | 36219 ft | 435 kts | 155° |
| 2026-04-24 21:31 | 2.67488 | 103.74202 | 36066 ft | 435 kts | 153° |
| 2026-04-24 21:31 | 2.64725 | 103.75524 | 35902 ft | 445 kts | 154° |
| 2026-04-24 21:31 | 2.61890 | 103.76861 | 35644 ft | 457 kts | 154° |
| 2026-04-24 21:32 | 2.58960 | 103.78244 | 35536 ft | 467 kts | 154° |
| 2026-04-24 21:32 | 2.53003 | 103.80964 | 35816 ft | 473 kts | 156° |
| 2026-04-24 21:32 | 2.50053 | 103.82336 | 35876 ft | 450 kts | 145° |
| 2026-04-24 21:33 | 2.47376 | 103.83947 | 35776 ft | 460 kts | 150° |
| 2026-04-24 21:33 | 2.41580 | 103.86886 | 35947 ft | 470 kts | 152° |
| 2026-04-24 21:33 | 2.38667 | 103.88372 | 36187 ft | 471 kts | 152° |
| 2026-04-24 21:34 | 2.35770 | 103.89926 | 36458 ft | 471 kts | 150° |
| 2026-04-24 21:34 | 2.32909 | 103.91525 | 36725 ft | 471 kts | 150° |
| 2026-04-24 21:34 | 2.30026 | 103.93103 | 37011 ft | 471 kts | 151° |
| 2026-04-24 21:34 | 2.27160 | 103.94688 | 37310 ft | 470 kts | 150° |
| 2026-04-24 21:35 | 2.24350 | 103.96285 | 37637 ft | 468 kts | 150° |
| 2026-04-24 21:35 | 2.21771 | 103.98008 | 35385 ft | 429 kts | 157° |